Time;durP1;ratioP1;P1;durP2;ratioP2;P2;SDS_P1;SDS_P2;PMS_P1;PMS_P2;Temp;Humidity;BMP_temperature;BMP_pressure;BME280_temperature;BME280_humidity;BME280_pressure;Samples;Min_cycle;Max_cycle;Signal;HPM_P1;HPM_P2
2022/12/15 00:38:43;;;;;;;;;;;;;;;18.79;56.82;99749.84;2242860;78;22357;-73
2022/12/15 00:41:45;;;;;;;;;;;;;;;18.84;56.64;99746.55;2208534;79;51169;-73
2022/12/15 00:44:46;;;;;;;;;;;;;;;18.87;56.53;99745.61;2211697;80;50366;-73
2022/12/15 00:47:48;;;;;;;;;;;;;;;18.92;56.43;99751.70;2203811;79;50614;-74
2022/12/15 00:50:52;;;;;;;;;;;;;;;18.93;56.35;99745.30;2216438;79;51506;-74
2022/12/15 01:20:33;;;;;;;;;;;;;;;18.51;57.50;99762.05;2205459;79;22436;-72
2022/12/15 01:23:32;;;;;;;;;;;;;;;18.49;57.58;99772.96;2185526;79;22808;-72
2022/12/15 01:26:34;;;;;;;;;;;;;;;18.52;57.52;99769.05;2211913;79;51449;-72
2022/12/15 01:29:36;;;;;;;;;;;;;;;18.52;57.55;99768.23;2217525;79;51575;-73
2022/12/15 01:32:37;;;;;;;;;;;;;;;18.53;57.39;99772.58;2206674;79;51665;-73
2022/12/15 01:35:39;;;;;;;;;;;;;;;18.55;57.38;99767.81;2189240;79;50401;-73
2022/12/15 01:38:41;;;;;;;;;;;;;;;18.56;57.25;99763.61;2181672;80;51627;-73
2022/12/15 01:41:43;;;;;;;;;;;;;;;18.58;57.25;99752.18;2201590;79;50514;-73
2022/12/15 01:44:46;;;;;;;;;;;;;;;18.62;57.13;99757.94;2212941;79;51683;-73
2022/12/15 01:47:47;;;;;;;;;;;;;;;18.66;57.00;99761.88;2225977;79;51517;-73
2022/12/15 01:50:50;;;;;;;;;;;;;;;18.71;56.89;99759.40;2234684;79;50263;-73
2022/12/15 01:53:59;;;;;;;;;;;;;;;18.77;56.77;99758.59;2247094;79;50576;-73
2022/12/15 01:57:02;;;;;;;;;;;;;;;18.80;56.64;99756.84;2218160;79;51842;-72
2022/12/15 02:00:04;;;;;;;;;;;;;;;18.85;56.53;99757.05;2213599;79;50823;-73
2022/12/15 02:03:06;;;;;;;;;;;;;;;18.85;56.42;99754.89;2227254;79;50122;-73
2022/12/15 02:06:08;;;;;;;;;;;;;;;18.82;56.49;99754.78;2243609;79;50682;-73
2022/12/15 02:09:09;;;;;;;;;;;;;;;18.78;56.59;99754.91;2218356;79;51141;-73
2022/12/15 02:12:12;;;;;;;;;;;;;;;18.70;56.80;99755.05;2219768;79;50284;-73
2022/12/15 02:15:22;;;;;;;;;;;;;;;18.63;56.89;99758.27;2213612;79;50306;-72
2022/12/15 02:18:37;;;;;;;;;;;;;;;18.59;57.14;99765.05;2219039;79;51546;-74
2022/12/15 02:21:40;;;;;;;;;;;;;;;18.59;57.10;99767.73;2171388;80;52592;-73
2022/12/15 02:24:50;;;;;;;;;;;;;;;18.61;57.11;99771.04;2211075;80;51558;-74
2022/12/15 02:27:56;;;;;;;;;;;;;;;18.63;57.03;99771.66;2242464;79;50411;-73
2022/12/15 02:34:30;;;;;;;;;;;;;;;18.71;56.93;99788.88;2222118;79;22407;-73
2022/12/15 02:37:32;;;;;;;;;;;;;;;18.71;56.94;99798.26;2230921;79;50345;-72
2022/12/15 02:40:34;;;;;;;;;;;;;;;18.74;57.00;99788.47;2212401;79;51496;-72
2022/12/15 02:43:36;;;;;;;;;;;;;;;18.76;56.88;99793.66;2208036;79;50791;-71
2022/12/15 02:46:43;;;;;;;;;;;;;;;18.78;56.86;99804.98;2216083;79;49526;-73
2022/12/15 02:49:49;;;;;;;;;;;;;;;18.79;56.85;99815.51;2217446;79;51512;-73
2022/12/15 02:53:01;;;;;;;;;;;;;;;18.82;56.71;99822.31;2213082;79;50484;-73
2022/12/15 02:56:07;;;;;;;;;;;;;;;18.85;56.62;99824.58;2216456;78;51810;-72
2022/12/15 02:59:17;;;;;;;;;;;;;;;18.83;56.59;99829.31;2216827;79;52372;-72
2022/12/15 03:02:18;;;;;;;;;;;;;;;18.80;56.63;99831.06;2213432;79;51455;-73
2022/12/15 03:05:20;;;;;;;;;;;;;;;18.74;56.83;99830.52;2212379;79;51469;-73
2022/12/15 03:08:21;;;;;;;;;;;;;;;18.66;56.98;99838.23;2230911;78;51572;-71
2022/12/15 03:11:23;;;;;;;;;;;;;;;18.59;57.11;99839.55;2166625;79;51732;-73
2022/12/15 03:14:25;;;;;;;;;;;;;;;18.56;57.27;99839.96;2214003;79;50699;-72
2022/12/15 03:17:26;;;;;;;;;;;;;;;18.56;57.46;99838.63;2231171;78;51412;-72
2022/12/15 03:20:28;;;;;;;;;;;;;;;18.60;57.30;99845.73;2216493;79;52430;-73
2022/12/15 03:23:29;;;;;;;;;;;;;;;18.58;57.42;99847.81;2184491;79;50686;-73
2022/12/15 03:26:31;;;;;;;;;;;;;;;18.59;57.33;99852.12;2202716;79;51551;-72
2022/12/15 03:29:33;;;;;;;;;;;;;;;18.60;57.28;99851.09;2215818;78;51436;-73
2022/12/15 03:32:34;;;;;;;;;;;;;;;18.61;57.20;99843.38;2185548;79;51470;-72
2022/12/15 03:35:36;;;;;;;;;;;;;;;18.63;57.14;99846.17;2218534;79;52295;-71
2022/12/15 03:38:37;;;;;;;;;;;;;;;18.67;57.08;99849.25;2246042;78;51507;-73
2022/12/15 03:41:40;;;;;;;;;;;;;;;18.67;57.02;99841.22;2205354;78;50345;-73
2022/12/15 03:44:42;;;;;;;;;;;;;;;18.70;56.88;99840.80;2235277;79;51507;-73
2022/12/15 03:47:43;;;;;;;;;;;;;;;18.70;56.80;99840.80;2218634;79;51724;-73
2022/12/15 03:50:45;;;;;;;;;;;;;;;18.72;56.79;99856.17;2245767;79;50714;-72
2022/12/15 03:53:48;;;;;;;;;;;;;;;18.75;56.75;99844.22;2207073;79;51537;-73
2022/12/15 03:56:49;;;;;;;;;;;;;;;18.77;56.74;99849.72;2220560;78;50492;-72
2022/12/15 03:59:51;;;;;;;;;;;;;;;18.78;56.69;99854.07;2206112;79;51275;-73
2022/12/15 04:02:52;;;;;;;;;;;;;;;18.81;56.68;99854.17;2227050;79;50324;-73
2022/12/15 04:05:54;;;;;;;;;;;;;;;18.85;56.55;99862.10;2211715;80;50239;-73
2022/12/15 04:08:55;;;;;;;;;;;;;;;18.84;56.45;99870.66;2227525;78;50657;-71
2022/12/15 04:11:57;;;;;;;;;;;;;;;18.80;56.54;99869.92;2217255;79;51018;-71
2022/12/15 04:14:59;;;;;;;;;;;;;;;18.74;56.59;99867.52;2248256;79;51523;-71
2022/12/15 04:18:01;;;;;;;;;;;;;;;18.70;56.72;99868.94;2191969;79;51483;-71
2022/12/15 04:21:03;;;;;;;;;;;;;;;18.61;56.89;99875.53;2217192;79;51534;-71
2022/12/15 05:33:56;;;;;;;;;;;;;;;18.50;56.90;99943.40;2234037;79;22380;-73
2022/12/15 05:36:58;;;;;;;;;;;;;;;18.50;56.98;99942.06;2225895;78;50236;-72
2022/12/15 05:40:00;;;;;;;;;;;;;;;18.49;57.00;99956.46;2228081;79;52347;-71
2022/12/15 05:43:02;;;;;;;;;;;;;;;18.52;57.03;99969.97;2217470;79;50653;-71
2022/12/15 05:46:03;;;;;;;;;;;;;;;18.56;56.97;99977.13;2206683;79;51221;-73
2022/12/15 05:49:08;;;;;;;;;;;;;;;18.57;56.90;99970.72;2236199;79;51475;-71
2022/12/15 05:52:10;;;;;;;;;;;;;;;18.60;56.56;99967.15;2247141;79;51562;-71
2022/12/15 05:55:11;;;;;;;;;;;;;;;18.61;56.42;99974.15;2223546;78;51530;-71
2022/12/15 05:58:13;;;;;;;;;;;;;;;18.62;56.30;99976.31;2183615;79;50693;-71
2022/12/15 06:01:15;;;;;;;;;;;;;;;18.64;56.31;99994.36;2204450;79;50805;-71
2022/12/15 06:04:17;;;;;;;;;;;;;;;18.66;56.25;99990.98;2213036;79;50488;-72
2022/12/15 06:07:18;;;;;;;;;;;;;;;18.70;56.13;99993.55;2216028;78;50377;-72
2022/12/15 06:10:20;;;;;;;;;;;;;;;18.72;55.96;99995.52;2198911;79;51186;-71
2022/12/15 06:13:22;;;;;;;;;;;;;;;18.73;55.83;100011.94;2218693;79;50706;-74
2022/12/15 06:16:24;;;;;;;;;;;;;;;18.68;55.80;100020.56;2240935;78;50311;-73
2022/12/15 06:19:25;;;;;;;;;;;;;;;18.64;55.73;100013.12;2228098;79;51491;-71
2022/12/15 06:22:30;;;;;;;;;;;;;;;18.58;55.83;100011.24;2193598;79;52771;-74
2022/12/15 06:25:32;;;;;;;;;;;;;;;18.50;55.80;100041.19;2240040;78;51459;-74
2022/12/15 06:28:33;;;;;;;;;;;;;;;18.46;56.02;100027.86;2182049;80;51427;-74
2022/12/15 06:31:35;;;;;;;;;;;;;;;18.47;56.22;100020.64;2184957;79;50299;-74
2022/12/15 06:34:37;;;;;;;;;;;;;;;18.51;56.12;100023.25;2202704;79;51675;-73
2022/12/15 06:37:38;;;;;;;;;;;;;;;18.51;56.05;100024.59;2191429;79;51529;-74
2022/12/15 06:40:40;;;;;;;;;;;;;;;18.56;55.93;100030.70;2248173;79;51494;-74
2022/12/15 06:43:42;;;;;;;;;;;;;;;18.58;55.74;100025.46;2242736;79;51468;-73
2022/12/15 06:46:44;;;;;;;;;;;;;;;18.63;55.54;100032.91;2183139;80;52499;-74
2022/12/15 06:49:46;;;;;;;;;;;;;;;18.66;55.41;100033.33;2231715;79;51642;-74
2022/12/15 06:52:47;;;;;;;;;;;;;;;18.71;55.31;100030.06;2224947;79;51480;-74
2022/12/15 06:55:49;;;;;;;;;;;;;;;18.73;55.21;100032.03;2233149;79;51396;-74
2022/12/15 06:58:51;;;;;;;;;;;;;;;18.76;55.02;100035.69;2194239;79;51213;-73
2022/12/15 07:01:53;;;;;;;;;;;;;;;18.79;54.88;100039.30;2218316;79;50282;-73
2022/12/15 07:04:54;;;;;;;;;;;;;;;18.81;54.70;100058.70;2219882;78;50357;-73
2022/12/15 07:07:56;;;;;;;;;;;;;;;18.83;54.90;100056.66;2247061;79;50244;-73
2022/12/15 07:10:57;;;;;;;;;;;;;;;18.86;54.84;100059.45;2201437;80;51893;-73
2022/12/15 07:13:59;;;;;;;;;;;;;;;18.80;54.72;100058.36;2227116;79;50344;-73
2022/12/15 07:17:01;;;;;;;;;;;;;;;18.74;54.77;100067.70;2237753;78;50677;-73
2022/12/15 07:20:04;;;;;;;;;;;;;;;18.67;54.97;100073.01;2211460;79;51413;-73
2022/12/15 07:23:08;;;;;;;;;;;;;;;18.60;55.09;100094.91;2193505;79;52195;-73
2022/12/15 07:26:09;;;;;;;;;;;;;;;18.50;55.37;100097.45;2218521;79;22459;-72
2022/12/15 07:29:10;;;;;;;;;;;;;;;18.53;55.16;100108.28;2183823;80;51473;-74
2022/12/15 07:32:12;;;;;;;;;;;;;;;18.53;55.18;100107.46;2196372;79;50810;-74
2022/12/15 07:35:14;;;;;;;;;;;;;;;18.50;55.32;100099.30;2242624;79;50329;-73
2022/12/15 07:38:15;;;;;;;;;;;;;;;18.53;55.05;100108.28;2218462;79;50392;-73
2022/12/15 07:41:17;;;;;;;;;;;;;;;18.52;54.95;100111.97;2218297;79;50607;-73
2022/12/15 07:44:18;;;;;;;;;;;;;;;18.52;55.00;100115.16;2231451;78;50750;-74
2022/12/15 07:47:20;;;;;;;;;;;;;;;18.53;54.93;100124.36;2184040;79;53848;-73
2022/12/15 07:50:22;;;;;;;;;;;;;;;18.55;54.76;100117.45;2221718;78;51499;-73
2022/12/15 07:53:24;;;;;;;;;;;;;;;18.59;54.57;100125.42;2228807;79;51391;-74
2022/12/15 07:56:26;;;;;;;;;;;;;;;18.58;54.48;100112.54;2248563;79;51615;-74
2022/12/15 07:59:27;;;;;;;;;;;;;;;18.60;54.42;100130.59;2184840;80;52531;-74
2022/12/15 08:02:29;;;;;;;;;;;;;;;18.63;54.17;100137.41;2214307;79;51455;-75
2022/12/15 08:05:30;;;;;;;;;;;;;;;18.63;54.11;100144.11;2231514;79;51509;-75
2022/12/15 08:08:32;;;;;;;;;;;;;;;18.63;54.18;100146.80;2242952;79;50708;-75
2022/12/15 08:11:34;;;;;;;;;;;;;;;18.63;54.07;100148.13;2203722;79;51051;-75
2022/12/15 08:14:35;;;;;;;;;;;;;;;18.65;53.94;100147.41;2221372;79;51538;-75
2022/12/15 08:17:37;;;;;;;;;;;;;;;18.68;53.97;100157.76;2222596;78;51601;-75
2022/12/15 08:20:39;;;;;;;;;;;;;;;18.70;53.83;100156.53;2211156;79;51301;-76
2022/12/15 08:23:40;;;;;;;;;;;;;;;18.74;53.67;100160.98;2218609;79;52531;-75
2022/12/15 08:26:42;;;;;;;;;;;;;;;18.74;53.53;100163.66;2248024;78;50729;-75
2022/12/15 08:29:44;;;;;;;;;;;;;;;18.70;53.62;100166.41;2244710;78;50385;-75
2022/12/15 08:32:46;;;;;;;;;;;;;;;18.64;53.61;100158.64;2219526;78;49976;-75
2022/12/15 08:35:48;;;;;;;;;;;;;;;18.58;53.83;100174.69;2207376;79;52359;-75
2022/12/15 08:38:49;;;;;;;;;;;;;;;18.52;53.97;100187.50;2218517;79;50064;-75
2022/12/15 08:41:51;;;;;;;;;;;;;;;18.43;54.13;100190.84;2214944;79;51399;-74
2022/12/15 08:44:52;;;;;;;;;;;;;;;18.42;54.15;100185.14;2220328;79;50014;-73
2022/12/15 08:47:55;;;;;;;;;;;;;;;18.42;54.14;100185.14;2218258;79;52359;-74
2022/12/15 08:50:57;;;;;;;;;;;;;;;18.43;54.02;100185.48;2246169;79;50310;-74
2022/12/15 08:53:59;;;;;;;;;;;;;;;18.48;54.03;100185.21;2248262;79;51520;-74
2022/12/15 08:57:01;;;;;;;;;;;;;;;18.48;53.83;100187.89;2233527;78;50479;-74
2022/12/15 09:00:04;;;;;;;;;;;;;;;18.50;53.84;100185.86;2242118;78;49761;-74
2022/12/15 09:03:05;;;;;;;;;;;;;;;18.55;53.54;100200.50;2223324;79;51485;-74
2022/12/15 09:06:09;;;;;;;;;;;;;;;18.54;53.57;100186.80;2205102;79;51484;-75
2022/12/15 09:09:11;;;;;;;;;;;;;;;18.59;53.48;100196.42;2211421;79;51610;-74
2022/12/15 09:12:13;;;;;;;;;;;;;;;18.61;53.37;100194.39;2228804;78;50811;-74
2022/12/15 09:15:14;;;;;;;;;;;;;;;18.62;53.27;100203.55;2241006;79;50460;-75
2022/12/15 09:18:16;;;;;;;;;;;;;;;18.66;53.13;100202.67;2209973;79;51544;-75
2022/12/15 09:21:18;;;;;;;;;;;;;;;18.66;53.15;100202.67;2229358;78;51146;-75
2022/12/15 09:24:19;;;;;;;;;;;;;;;18.69;53.10;100208.98;2188579;79;52370;-75
2022/12/15 09:27:21;;;;;;;;;;;;;;;18.68;53.06;100210.84;2236536;79;51436;-73
2022/12/15 09:30:22;;;;;;;;;;;;;;;18.70;53.00;100212.81;2179450;78;50392;-73
2022/12/15 09:33:24;;;;;;;;;;;;;;;18.71;52.98;100210.95;2229636;79;50290;-73
2022/12/15 09:36:26;;;;;;;;;;;;;;;18.75;52.94;100214.06;2192434;80;50007;-72
2022/12/15 09:39:27;;;;;;;;;;;;;;;18.79;52.84;100202.80;2219387;78;51486;-73
2022/12/15 09:42:29;;;;;;;;;;;;;;;18.83;52.71;100194.70;2203923;79;51546;-73
2022/12/15 09:45:33;;;;;;;;;;;;;;;18.83;52.63;100194.70;2223792;79;51534;-73
2022/12/15 09:48:36;;;;;;;;;;;;;;;18.77;52.69;100199.48;2231214;78;52632;-76
2022/12/15 09:51:42;;;;;;;;;;;;;;;18.73;52.81;100206.23;2205214;79;50297;-76
2022/12/15 09:54:43;;;;;;;;;;;;;;;18.65;52.92;100204.53;2224452;78;51774;-76
2022/12/15 09:57:52;;;;;;;;;;;;;;;18.57;53.06;100215.88;2227231;79;51467;-75
2022/12/15 10:01:11;;;;;;;;;;;;;;;18.48;53.30;100214.69;2217076;79;51502;-76
2022/12/15 10:04:14;;;;;;;;;;;;;;;18.44;53.46;100220.09;2211604;79;49941;-76
2022/12/15 10:07:34;;;;;;;;;;;;;;;18.46;53.49;100220.73;2209801;79;50669;-76
2022/12/15 10:10:41;;;;;;;;;;;;;;;18.44;53.47;100221.44;2238975;79;50681;-75
2022/12/15 10:14:00;;;;;;;;;;;;;;;18.42;53.50;100218.14;2194997;79;51069;-74
2022/12/15 10:17:20;;;;;;;;;;;;;;;18.43;53.47;100221.13;2236651;78;50300;-74
2022/12/15 10:20:30;;;;;;;;;;;;;;;18.47;53.43;100223.75;2230517;78;50712;-74
2022/12/15 10:23:32;;;;;;;;;;;;;;;18.50;53.29;100231.92;2234322;79;50778;-74
2022/12/15 10:26:34;;;;;;;;;;;;;;;18.53;53.20;100230.70;2188330;79;52500;-73
2022/12/15 10:29:37;;;;;;;;;;;;;;;18.58;52.95;100230.95;2195358;80;51463;-74
2022/12/15 10:32:40;;;;;;;;;;;;;;;18.57;52.98;100226.08;2232792;79;51487;-73
2022/12/15 10:35:42;;;;;;;;;;;;;;;18.58;53.03;100222.91;2235014;79;50343;-74
2022/12/15 10:38:46;;;;;;;;;;;;;;;18.59;52.94;100223.22;2181559;79;50984;-73
2022/12/15 10:41:49;;;;;;;;;;;;;;;18.64;52.84;100222.12;2240526;79;50791;-73
2022/12/15 10:44:55;;;;;;;;;;;;;;;18.63;52.77;100217.29;2209131;78;51457;-73
2022/12/15 10:48:02;;;;;;;;;;;;;;;18.67;52.65;100220.39;2221398;79;50693;-76
2022/12/15 10:51:14;;;;;;;;;;;;;;;18.67;52.73;100220.39;2205493;79;23161;-75
2022/12/15 10:54:17;;;;;;;;;;;;;;;18.69;52.70;100216.50;2200645;79;50258;-75
2022/12/15 10:57:23;;;;;;;;;;;;;;;18.73;52.68;100219.64;2235503;78;51649;-76
2022/12/15 11:00:26;;;;;;;;;;;;;;;18.75;52.72;100228.80;2239657;79;51577;-75
2022/12/15 11:03:28;;;;;;;;;;;;;;;18.80;52.67;100229.91;2182871;80;50167;-75
2022/12/15 11:06:31;;;;;;;;;;;;;;;18.82;52.73;100239.11;2185898;79;51507;-74
2022/12/15 11:09:36;;;;;;;;;;;;;;;18.89;52.63;100231.95;2236165;79;50811;-75
2022/12/15 11:12:53;;;;;;;;;;;;;;;18.84;52.80;100233.87;2235724;79;50468;-73
2022/12/15 11:15:55;;;;;;;;;;;;;;;18.77;53.06;100250.41;2188700;80;52560;-75
2022/12/15 11:19:04;;;;;;;;;;;;;;;18.70;53.38;100250.82;2235735;79;51586;-74
2022/12/15 11:22:10;;;;;;;;;;;;;;;18.62;53.51;100254.98;2185795;79;50639;-75
2022/12/15 11:25:20;;;;;;;;;;;;;;;18.57;53.91;100252.05;2222829;78;52350;-75
2022/12/15 11:28:23;;;;;;;;;;;;;;;18.55;54.01;100260.79;2194374;79;51200;-74
2022/12/15 11:31:33;;;;;;;;;;;;;;;18.60;53.79;100259.70;2236748;78;50320;-75
2022/12/15 11:34:39;;;;;;;;;;;;;;;18.60;53.74;100262.38;2237851;79;51477;-77
2022/12/15 11:37:41;;;;;;;;;;;;;;;18.61;53.85;100248.80;2230353;79;50282;-76
2022/12/15 11:40:43;;;;;;;;;;;;;;;18.67;53.80;100253.38;2203411;79;52423;-75
2022/12/15 11:43:49;;;;;;;;;;;;;;;18.64;53.91;100247.59;2230035;79;51571;-76
2022/12/15 11:46:52;;;;;;;;;;;;;;;18.66;53.80;100257.61;2236190;79;50780;-78
2022/12/15 11:49:55;;;;;;;;;;;;;;;18.70;53.78;100264.22;2207725;79;50702;-78
2022/12/15 11:53:05;;;;;;;;;;;;;;;18.82;53.46;100250.66;2140827;79;51695;-78
2022/12/15 11:56:08;;;;;;;;;;;;;;;18.81;53.43;100253.55;2211063;78;51593;-78
2022/12/15 11:59:30;;;;;;;;;;;;;;;18.80;53.45;100255.38;2235112;79;51415;-78
2022/12/15 12:02:48;;;;;;;;;;;;;;;18.85;53.41;100255.62;2222137;78;51449;-75
2022/12/15 12:06:01;;;;;;;;;;;;;;;18.92;53.24;100245.78;2201349;79;51598;-74
2022/12/15 12:09:05;;;;;;;;;;;;;;;18.93;53.21;100242.09;2213437;79;51591;-73
2022/12/15 12:12:10;;;;;;;;;;;;;;;18.97;53.15;100241.70;2233979;79;50259;-75
2022/12/15 12:15:13;;;;;;;;;;;;;;;18.93;53.28;100234.54;2223644;79;51505;-75
2022/12/15 12:18:17;;;;;;;;;;;;;;;18.98;53.16;100236.64;2194582;79;52576;-74
2022/12/15 12:21:20;;;;;;;;;;;;;;;18.97;53.18;100232.31;2224493;79;51632;-74
2022/12/15 12:24:26;;;;;;;;;;;;;;;19.02;53.23;100228.53;2228732;79;50258;-73
2022/12/15 12:27:35;;;;;;;;;;;;;;;18.99;53.20;100232.95;2230122;79;50254;-73
2022/12/15 12:30:41;;;;;;;;;;;;;;;18.96;53.25;100227.47;2213972;78;52371;-75
2022/12/15 12:33:44;;;;;;;;;;;;;;;18.95;53.33;100227.13;2233928;79;50730;-75
2022/12/15 12:36:45;;;;;;;;;;;;;;;18.82;53.80;100238.59;2200611;79;51499;-76
2022/12/15 12:39:47;;;;;;;;;;;;;;;18.76;54.06;100236.70;2199079;79;50329;-76
2022/12/15 12:42:56;;;;;;;;;;;;;;;18.88;53.93;100239.17;2228158;78;52475;-76
2022/12/15 12:45:59;;;;;;;;;;;;;;;19.16;53.46;100239.64;2225304;79;50803;-75
2022/12/15 12:49:19;;;;;;;;;;;;;;;19.01;53.54;100255.87;2199671;79;51627;-76
2022/12/15 12:52:27;;;;;;;;;;;;;;;18.68;46.70;100256.39;2235058;79;52531;-75
2022/12/15 12:55:34;;;;;;;;;;;;;;;18.30;43.06;100262.53;2201664;79;52430;-75
2022/12/15 12:58:37;;;;;;;;;;;;;;;18.33;44.12;100255.95;2231777;79;50764;-75
2022/12/15 13:01:39;;;;;;;;;;;;;;;18.39;44.85;100261.36;2236461;79;50795;-73
2022/12/15 13:04:42;;;;;;;;;;;;;;;18.51;45.27;100263.03;2229595;79;50376;-73
2022/12/15 13:07:44;;;;;;;;;;;;;;;18.54;45.75;100268.00;2237885;78;51086;-74
2022/12/15 13:10:46;;;;;;;;;;;;;;;18.57;46.05;100264.94;2183797;79;50432;-76
2022/12/15 13:13:48;;;;;;;;;;;;;;;18.59;46.32;100266.91;2235172;79;51449;-72
2022/12/15 13:16:50;;;;;;;;;;;;;;;18.61;46.64;100260.04;2241079;78;50733;-73
2022/12/15 13:20:00;;;;;;;;;;;;;;;18.59;47.01;100253.52;2203720;79;51168;-73
2022/12/15 13:23:20;;;;;;;;;;;;;;;18.62;47.29;100257.66;2235601;79;51562;-73
2022/12/15 13:26:22;;;;;;;;;;;;;;;18.65;47.64;100255.93;2222397;78;51649;-74
2022/12/15 13:29:23;;;;;;;;;;;;;;;18.66;47.86;100253.59;2233441;79;51407;-75
2022/12/15 13:32:27;;;;;;;;;;;;;;;18.71;48.06;100254.66;2227885;79;51583;-75
2022/12/15 13:35:33;;;;;;;;;;;;;;;18.74;48.23;100245.41;2239111;79;50365;-75
2022/12/15 13:38:51;;;;;;;;;;;;;;;18.80;48.21;100243.31;2232163;79;51497;-74
2022/12/15 13:41:57;;;;;;;;;;;;;;;18.83;48.28;100237.59;2212003;79;50816;-75
2022/12/15 13:45:01;;;;;;;;;;;;;;;18.90;48.14;100243.80;2209800;79;49785;-76
2022/12/15 13:48:07;;;;;;;;;;;;;;;18.93;48.16;100254.16;2236611;79;50340;-77
2022/12/15 13:51:11;;;;;;;;;;;;;;;18.92;48.28;100249.80;2210493;78;49996;-75
2022/12/15 13:54:16;;;;;;;;;;;;;;;19.00;48.30;100253.37;2194976;81;50472;-75
2022/12/15 13:57:18;;;;;;;;;;;;;;;19.03;48.26;100253.80;2187779;79;52538;-75
2022/12/15 14:00:19;;;;;;;;;;;;;;;19.11;48.11;100254.16;2232572;78;51481;-74
2022/12/15 14:03:21;;;;;;;;;;;;;;;19.18;47.96;100253.69;2214759;79;51611;-75
2022/12/15 14:06:22;;;;;;;;;;;;;;;19.19;47.94;100248.66;2224764;79;51534;-75
2022/12/15 14:09:29;;;;;;;;;;;;;;;19.15;47.97;100245.53;2183535;80;51002;-75
2022/12/15 14:12:30;;;;;;;;;;;;;;;19.05;48.16;100238.86;2228554;79;50915;-75
2022/12/15 14:15:32;;;;;;;;;;;;;;;19.01;48.24;100252.33;2249010;79;51524;-76
2022/12/15 14:18:34;;;;;;;;;;;;;;;18.88;48.56;100257.08;2219343;79;51549;-75
2022/12/15 14:21:36;;;;;;;;;;;;;;;18.77;48.82;100264.33;2217422;79;50108;-76
2022/12/15 14:24:39;;;;;;;;;;;;;;;18.76;48.85;100252.78;2237853;78;50647;-76
2022/12/15 14:27:41;;;;;;;;;;;;;;;18.77;48.91;100259.78;2223620;79;51397;-76
2022/12/15 14:30:42;;;;;;;;;;;;;;;18.77;48.92;100257.10;2214801;79;50476;-76
2022/12/15 14:33:45;;;;;;;;;;;;;;;18.78;48.92;100257.44;2194357;79;50232;-76
2022/12/15 14:36:49;;;;;;;;;;;;;;;18.82;48.87;100260.55;2206697;79;50458;-75
2022/12/15 14:39:50;;;;;;;;;;;;;;;18.83;48.82;100271.58;2216475;78;22013;-76
2022/12/15 14:42:52;;;;;;;;;;;;;;;18.79;48.91;100276.51;2245047;79;50507;-76
2022/12/15 14:45:54;;;;;;;;;;;;;;;18.86;48.77;100276.06;2217305;79;50146;-76
2022/12/15 14:48:56;;;;;;;;;;;;;;;18.82;48.89;100276.63;2230672;79;50773;-76
2022/12/15 14:52:00;;;;;;;;;;;;;;;18.87;48.82;100268.33;2233930;79;50825;-75
2022/12/15 14:55:02;;;;;;;;;;;;;;;18.87;48.85;100284.92;2249195;79;50795;-75
2022/12/15 14:58:23;;;;;;;;;;;;;;;18.88;48.82;100270.00;2186242;80;52587;-75
2022/12/15 15:01:27;;;;;;;;;;;;;;;18.90;48.82;100269.27;2223441;79;50205;-76
2022/12/15 15:04:31;;;;;;;;;;;;;;;18.98;48.65;100274.17;2235195;78;50437;-77
2022/12/15 15:07:34;;;;;;;;;;;;;;;18.93;48.78;100272.07;2238355;79;50256;-75
2022/12/15 15:10:36;;;;;;;;;;;;;;;18.97;48.74;100276.55;2159949;79;51626;-75
2022/12/15 15:13:38;;;;;;;;;;;;;;;19.04;48.54;100278.78;2212403;80;51358;-75
2022/12/15 15:16:40;;;;;;;;;;;;;;;19.07;48.50;100275.19;2224073;78;50300;-75
2022/12/15 15:19:49;;;;;;;;;;;;;;;19.13;48.37;100273.56;2236695;79;50463;-75
2022/12/15 15:22:58;;;;;;;;;;;;;;;19.14;48.34;100279.27;2192628;79;52512;-76
2022/12/15 15:26:07;;;;;;;;;;;;;;;19.19;48.22;100270.13;2207999;78;51479;-74
2022/12/15 15:29:27;;;;;;;;;;;;;;;19.25;48.12;100272.52;2235318;79;50713;-75
2022/12/15 15:32:29;;;;;;;;;;;;;;;19.28;47.99;100271.61;2230408;78;50768;-74
2022/12/15 15:35:31;;;;;;;;;;;;;;;19.18;48.15;100277.83;2172501;80;52381;-75
2022/12/15 15:38:33;;;;;;;;;;;;;;;19.11;48.24;100271.10;2223928;78;51535;-75
2022/12/15 15:41:35;;;;;;;;;;;;;;;19.04;48.41;100266.20;2222192;79;50429;-74
2022/12/15 15:44:36;;;;;;;;;;;;;;;18.90;48.80;100269.78;2235307;79;50261;-75
2022/12/15 15:47:38;;;;;;;;;;;;;;;18.76;49.21;100269.38;2218912;79;49364;-74
2022/12/15 15:50:39;;;;;;;;;;;;;;;18.63;49.51;100271.40;2249618;79;49965;-76
2022/12/15 15:53:41;;;;;;;;;;;;;;;18.56;49.84;100262.47;2246364;79;50662;-76
2022/12/15 15:56:42;;;;;;;;;;;;;;;18.52;49.91;100262.00;2203065;78;51536;-75
2022/12/15 15:59:45;;;;;;;;;;;;;;;18.49;50.07;100272.59;2241457;79;50818;-75
2022/12/15 16:02:47;;;;;;;;;;;;;;;18.50;50.02;100268.91;2252108;79;51718;-76
2022/12/15 16:05:49;;;;;;;;;;;;;;;18.48;50.11;100266.92;2239272;79;51619;-76
2022/12/15 16:08:51;;;;;;;;;;;;;;;18.49;50.18;100268.57;2240446;78;50640;-76
2022/12/15 16:11:52;;;;;;;;;;;;;;;18.53;50.11;100270.89;2246956;78;50956;-74
2022/12/15 16:14:54;;;;;;;;;;;;;;;18.52;50.17;100268.70;2223851;78;50740;-75
2022/12/15 16:17:56;;;;;;;;;;;;;;;18.56;50.26;100272.66;2223324;78;50716;-76
2022/12/15 16:20:57;;;;;;;;;;;;;;;18.60;50.31;100281.14;2221864;79;51580;-75
2022/12/15 16:23:59;;;;;;;;;;;;;;;18.62;50.35;100293.84;2188168;79;51110;-75
2022/12/15 16:27:01;;;;;;;;;;;;;;;18.66;50.46;100291.11;2248065;78;50270;-76
2022/12/15 16:30:04;;;;;;;;;;;;;;;18.69;50.54;100296.08;2233553;78;51520;-76
2022/12/15 16:33:06;;;;;;;;;;;;;;;18.72;50.53;100304.55;2246425;79;51440;-73
2022/12/15 16:36:13;;;;;;;;;;;;;;;18.80;50.54;100296.92;2218477;79;49505;-74
2022/12/15 16:39:17;;;;;;;;;;;;;;;18.85;50.48;100309.75;2237500;78;49989;-76
2022/12/15 16:42:18;;;;;;;;;;;;;;;18.89;50.45;100298.97;2226690;79;50381;-73
2022/12/15 16:45:20;;;;;;;;;;;;;;;18.93;50.47;100301.56;2228742;79;50735;-75
2022/12/15 16:48:22;;;;;;;;;;;;;;;18.98;50.29;100297.79;2218316;79;49642;-76
2022/12/15 16:51:25;;;;;;;;;;;;;;;19.00;50.10;100307.81;2201471;79;50290;-74
2022/12/15 16:54:27;;;;;;;;;;;;;;;19.01;49.90;100312.66;2217440;78;50369;-73
2022/12/15 16:57:28;;;;;;;;;;;;;;;18.98;49.83;100311.20;2221401;79;50444;-75
2022/12/15 17:00:32;;;;;;;;;;;;;;;18.92;49.90;100327.55;2176267;81;51251;-74
2022/12/15 17:03:34;;;;;;;;;;;;;;;18.83;50.07;100321.17;2222887;78;50787;-74
2022/12/15 17:06:36;;;;;;;;;;;;;;;18.74;50.21;100324.98;2205988;79;51838;-75
2022/12/15 17:09:37;;;;;;;;;;;;;;;18.67;50.53;100333.77;2229063;78;51587;-74
2022/12/15 17:12:39;;;;;;;;;;;;;;;18.65;50.71;100328.29;2212357;79;51139;-73
2022/12/15 17:15:40;;;;;;;;;;;;;;;18.66;50.81;100338.00;2205233;79;50096;-73
2022/12/15 17:18:42;;;;;;;;;;;;;;;18.69;50.79;100336.27;2219150;78;50710;-73
2022/12/15 17:21:50;;;;;;;;;;;;;;;18.71;50.75;100331.56;2183490;80;50637;-73
2022/12/15 17:24:52;;;;;;;;;;;;;;;18.75;50.75;100331.99;2196130;79;51665;-73
2022/12/15 17:27:55;;;;;;;;;;;;;;;18.79;50.80;100338.67;2189042;79;50647;-74
2022/12/15 17:30:56;;;;;;;;;;;;;;;18.82;50.86;100345.81;2227728;79;49758;-73
2022/12/15 17:33:58;;;;;;;;;;;;;;;18.85;50.85;100348.10;2232465;78;50126;-74
2022/12/15 17:37:01;;;;;;;;;;;;;;;18.90;50.89;100353.72;2217131;78;52722;-73
2022/12/15 17:40:03;;;;;;;;;;;;;;;18.96;50.75;100355.31;2236591;79;50018;-72
2022/12/15 17:43:07;;;;;;;;;;;;;;;18.96;50.83;100372.25;2212422;79;51485;-72
2022/12/15 17:46:08;;;;;;;;;;;;;;;18.97;50.49;100379.78;2214059;79;51427;-73
2022/12/15 17:49:10;;;;;;;;;;;;;;;18.95;50.42;100372.43;2174405;79;51053;-74
2022/12/15 17:52:22;;;;;;;;;;;;;;;18.98;50.31;100370.70;2213492;79;50988;-73
2022/12/15 17:55:25;;;;;;;;;;;;;;;18.98;50.30;100378.23;2217306;79;51668;-73
2022/12/15 17:58:26;;;;;;;;;;;;;;;18.99;50.29;100375.06;2248841;79;50708;-73
2022/12/15 18:01:28;;;;;;;;;;;;;;;18.99;50.29;100367.02;2248847;79;51540;-73